createdAt,value
2018-04-10T00:01:18.361Z,80.17
2018-04-10T00:03:45.935Z,80.33
2018-04-10T00:06:13.480Z,80.12
2018-04-10T00:08:41.966Z,79.54
2018-04-10T00:11:09.481Z,79.84
2018-04-10T00:13:37.038Z,79.91
2018-04-10T00:16:04.553Z,79.92
2018-04-10T00:18:32.139Z,79.82
2018-04-10T00:20:59.665Z,79.93
2018-04-10T00:23:27.194Z,80.01
2018-04-10T00:25:54.765Z,79.83
2018-04-10T00:28:22.317Z,80.02
2018-04-10T00:30:49.873Z,80.11
2018-04-10T00:33:17.404Z,80.48
2018-04-10T00:35:44.964Z,80.55
2018-04-10T00:38:12.491Z,80.45
2018-04-10T00:40:40.051Z,80.34
2018-04-10T00:43:07.586Z,80.67
2018-04-10T00:45:35.145Z,81.35
2018-04-10T00:48:02.679Z,81.14
2018-04-10T00:50:30.247Z,81.35
2018-04-10T00:53:09.498Z,81.03
2018-04-10T00:55:37.049Z,81.58
2018-04-10T00:58:04.577Z,81.33
2018-04-10T01:00:32.157Z,81.90
2018-04-10T01:02:59.702Z,82.20
2018-04-10T01:05:27.262Z,81.90
2018-04-10T01:07:54.779Z,81.85
2018-04-10T01:10:22.335Z,82.34
2018-04-10T01:12:49.866Z,81.26
2018-04-10T01:15:17.441Z,81.39
2018-04-10T01:17:44.966Z,81.58
2018-04-10T01:20:12.526Z,81.61
2018-04-10T01:22:40.056Z,81.58
2018-04-10T01:25:07.603Z,81.36
2018-04-10T01:27:35.121Z,82.13
2018-04-10T01:30:02.679Z,82.31
2018-04-10T01:32:30.214Z,81.77
2018-04-10T01:34:57.834Z,82.06
2018-04-10T01:37:25.350Z,81.95
2018-04-10T01:39:52.901Z,82.25
2018-04-10T01:42:20.420Z,82.72
2018-04-10T01:44:48.004Z,82.42
2018-04-10T01:47:15.542Z,82.59
2018-04-10T01:49:43.107Z,83.43
2018-04-10T01:52:10.638Z,84.33
2018-04-10T01:54:38.199Z,84.67
2018-04-10T01:57:05.809Z,84.15
2018-04-10T01:59:33.338Z,83.40
2018-04-10T02:02:00.889Z,83.42
2018-04-10T02:04:28.410Z,83.75
2018-04-10T02:06:55.930Z,84.89
2018-04-10T02:09:23.492Z,84.58
2018-04-10T02:11:51.029Z,84.10
2018-04-10T02:14:18.585Z,84.22
2018-04-10T02:16:46.105Z,85.59
2018-04-10T02:19:13.669Z,86.32
2018-04-10T02:21:41.193Z,86.32
2018-04-10T02:24:08.763Z,84.89
2018-04-10T02:26:36.313Z,85.38
2018-04-10T02:29:03.887Z,86.13
2018-04-10T02:31:31.417Z,85.50
2018-04-10T02:33:58.997Z,85.72
2018-04-10T02:36:26.536Z,85.71
2018-04-10T02:38:54.094Z,84.96
2018-04-10T02:41:21.611Z,85.28
2018-04-10T02:43:49.173Z,84.69
2018-04-10T02:46:16.739Z,85.47
2018-04-10T02:48:44.279Z,85.59
2018-04-10T02:51:12.602Z,85.72
2018-04-10T02:53:40.307Z,85.82
2018-04-10T02:56:07.894Z,85.96
2018-04-10T02:58:35.425Z,85.30
2018-04-10T03:01:02.990Z,85.49
2018-04-10T03:03:30.513Z,85.57
2018-04-10T03:05:58.073Z,85.30
2018-04-10T03:08:25.597Z,85.35
2018-04-10T03:10:53.192Z,85.29
2018-04-10T03:13:20.729Z,85.35
2018-04-10T03:15:48.288Z,86.13
2018-04-10T03:18:15.813Z,86.14
2018-04-10T03:20:43.422Z,86.11
2018-04-10T03:23:10.936Z,86.37
2018-04-10T03:25:38.509Z,85.65
2018-04-10T03:28:06.037Z,85.98
2018-04-10T03:30:33.592Z,85.78
2018-04-10T03:33:01.109Z,86.01
2018-04-10T03:35:28.627Z,85.50
2018-04-10T03:37:56.194Z,86.01
2018-04-10T03:40:23.734Z,87.87
2018-04-10T03:42:51.298Z,88.92
2018-04-10T03:45:18.821Z,87.81
2018-04-10T03:47:46.397Z,86.68
2018-04-10T03:50:13.916Z,86.37
2018-04-10T03:52:41.488Z,85.80
2018-04-10T03:55:09.014Z,85.98
2018-04-10T03:57:36.581Z,85.98
2018-04-10T04:00:04.168Z,86.23
2018-04-10T04:02:31.728Z,86.03
2018-04-10T04:04:59.371Z,86.40
2018-04-10T04:07:26.981Z,85.89
2018-04-10T04:09:54.516Z,86.14
2018-04-10T04:12:22.078Z,86.10
2018-04-10T04:14:49.622Z,87.50
2018-04-10T04:17:27.913Z,87.58
2018-04-10T04:20:07.317Z,87.61
2018-04-10T04:22:38.702Z,87.30
2018-04-10T04:25:06.266Z,86.97
2018-04-10T04:27:33.819Z,86.21
2018-04-10T04:30:01.355Z,87.26
2018-04-10T04:32:28.926Z,86.73
2018-04-10T04:34:56.465Z,86.37
2018-04-10T04:37:24.017Z,85.86
2018-04-10T04:39:51.580Z,86.25
2018-04-10T04:42:19.348Z,86.44
2018-04-10T04:44:47.117Z,87.08
2018-04-10T04:47:17.617Z,86.79
2018-04-10T04:49:45.281Z,87.13
2018-04-10T04:52:13.090Z,86.75
2018-04-10T04:54:45.587Z,87.34
2018-04-10T04:57:13.371Z,86.80
2018-04-10T04:59:40.904Z,86.55
2018-04-10T05:02:08.497Z,86.83
2018-04-10T05:04:36.030Z,86.92
2018-04-10T05:07:03.595Z,86.72
2018-04-10T05:09:31.133Z,86.56
2018-04-10T05:11:58.689Z,86.93
2018-04-10T05:14:26.212Z,86.48
2018-04-10T05:16:53.790Z,86.18
2018-04-10T05:19:21.314Z,86.72
2018-04-10T05:21:48.873Z,87.24
2018-04-10T05:24:16.394Z,87.01
2018-04-10T05:26:43.921Z,86.52
2018-04-10T05:29:11.738Z,87.61
2018-04-10T05:31:39.571Z,87.27
2018-04-10T05:34:07.258Z,87.32
2018-04-10T05:36:34.835Z,86.43
2018-04-10T05:39:02.413Z,86.32
2018-04-10T05:41:30.021Z,86.25
2018-04-10T05:44:01.604Z,86.49
2018-04-10T05:46:29.545Z,86.87
2018-04-10T05:48:57.306Z,86.88
2018-04-10T05:51:25.059Z,86.13
2018-04-10T05:53:52.654Z,86.80
2018-04-10T05:56:22.139Z,86.19
2018-04-10T05:58:50.338Z,86.48
2018-04-10T06:01:17.857Z,86.58
2018-04-10T06:03:45.624Z,86.96
2018-04-10T06:06:14.442Z,86.81
2018-04-10T06:08:42.034Z,87.17
2018-04-10T06:11:09.740Z,86.52
2018-04-10T06:13:37.315Z,86.52
2018-04-10T06:16:04.847Z,87.08
2018-04-10T06:18:32.419Z,86.38
2018-04-10T06:20:59.933Z,86.24
2018-04-10T06:23:27.537Z,86.08
2018-04-10T06:25:55.080Z,86.55
2018-04-10T06:28:22.664Z,85.85
2018-04-10T06:30:50.192Z,86.05
2018-04-10T06:33:17.754Z,86.08
2018-04-10T06:35:45.270Z,85.68
2018-04-10T06:38:13.518Z,85.55
2018-04-10T06:40:41.051Z,85.80
2018-04-10T06:43:08.629Z,85.46
2018-04-10T06:45:36.148Z,85.36
2018-04-10T06:48:03.730Z,85.16
2018-04-10T06:50:31.253Z,84.19
2018-04-10T06:52:58.881Z,84.71
2018-04-10T06:55:26.402Z,84.65
2018-04-10T06:57:53.965Z,84.28
2018-04-10T07:00:21.494Z,84.34
2018-04-10T07:02:49.028Z,84.89
2018-04-10T07:05:16.605Z,85.11
2018-04-10T07:07:44.145Z,84.54
2018-04-10T07:10:11.697Z,84.06
2018-04-10T07:12:39.219Z,84.91
2018-04-10T07:15:06.826Z,83.87
2018-04-10T07:17:34.361Z,83.74
2018-04-10T07:20:01.922Z,83.99
2018-04-10T07:22:29.505Z,83.42
2018-04-10T07:24:57.131Z,83.59
2018-04-10T07:29:54.110Z,83.81
2018-04-10T07:32:21.692Z,83.56
2018-04-10T07:34:49.301Z,84.42
2018-04-10T07:37:16.848Z,84.34
2018-04-10T07:39:44.430Z,84.60
2018-04-10T07:42:12.502Z,84.38
2018-04-10T07:44:40.125Z,83.69
2018-04-10T07:47:07.680Z,84.01
2018-04-10T07:49:35.233Z,83.91
2018-04-10T07:52:02.779Z,83.89
2018-04-10T07:54:30.738Z,83.39
2018-04-10T07:56:58.390Z,83.03
2018-04-10T07:59:26.057Z,83.28
2018-04-10T08:01:53.684Z,82.65
2018-04-10T08:04:21.284Z,83.13
2018-04-10T08:06:48.829Z,83.91
2018-04-10T08:09:18.855Z,83.41
2018-04-10T08:11:47.079Z,83.94
2018-04-10T08:14:16.794Z,84.53
2018-04-10T08:16:46.428Z,84.61
2018-04-10T08:19:14.338Z,83.84
2018-04-10T08:21:42.911Z,83.78
2018-04-10T08:24:13.929Z,83.25
2018-04-10T08:26:44.584Z,83.23
2018-04-10T08:29:12.205Z,82.94
2018-04-10T08:31:43.028Z,83.09
2018-04-10T08:34:14.057Z,82.81
2018-04-10T08:36:47.016Z,83.09
2018-04-10T08:39:14.938Z,82.95
2018-04-10T08:41:42.479Z,83.10
2018-04-10T08:44:11.529Z,82.08
2018-04-10T08:46:41.721Z,81.99
2018-04-10T08:49:12.059Z,81.81
2018-04-10T08:51:39.581Z,82.31
2018-04-10T08:54:09.943Z,81.41
2018-04-10T08:56:38.326Z,80.56
2018-04-10T08:59:06.341Z,79.65
2018-04-10T09:01:34.599Z,80.09
2018-04-10T09:04:02.186Z,82.05
2018-04-10T09:06:32.505Z,82.37
2018-04-10T09:09:01.830Z,81.48
2018-04-10T09:11:31.441Z,80.92
2018-04-10T09:14:00.021Z,80.20
2018-04-10T09:16:30.962Z,80.57
2018-04-10T09:18:58.514Z,80.33
2018-04-10T09:21:27.696Z,80.27
2018-04-10T09:23:56.436Z,80.18
2018-04-10T09:26:28.173Z,79.61
2018-04-10T09:28:56.835Z,79.74
2018-04-10T09:31:24.539Z,79.29
2018-04-10T09:33:53.477Z,79.00
2018-04-10T09:36:22.047Z,80.00
2018-04-10T09:38:49.825Z,79.22
2018-04-10T09:41:19.882Z,80.19
2018-04-10T09:43:48.099Z,79.75
2018-04-10T09:46:21.144Z,78.88
2018-04-10T09:48:48.766Z,79.12
2018-04-10T09:51:16.998Z,79.54
2018-04-10T09:53:44.876Z,78.59
2018-04-10T09:56:13.393Z,77.22
2018-04-10T09:58:42.200Z,76.97
2018-04-10T10:01:09.794Z,77.26
2018-04-10T10:03:37.337Z,77.29
2018-04-10T10:06:04.922Z,76.26
2018-04-10T10:08:32.508Z,76.13
2018-04-10T10:11:00.104Z,75.44
2018-04-10T10:13:27.635Z,74.60
2018-04-10T10:15:55.998Z,74.37
2018-04-10T10:18:23.536Z,73.85
2018-04-10T10:20:51.179Z,73.01
2018-04-10T10:23:19.245Z,72.62
2018-04-10T10:25:46.825Z,72.17
2018-04-10T10:28:14.355Z,72.81
2018-04-10T10:30:41.931Z,72.46
2018-04-10T10:33:09.473Z,74.29
2018-04-10T10:35:37.035Z,71.18
2018-04-10T10:38:04.613Z,69.46
2018-04-10T10:40:32.160Z,70.23
2018-04-10T10:42:59.687Z,70.55
2018-04-10T10:45:27.251Z,70.19
2018-04-10T10:47:54.783Z,70.53
2018-04-10T10:50:22.352Z,70.93
2018-04-10T10:52:49.870Z,68.34
2018-04-10T10:55:17.424Z,67.13
2018-04-10T10:57:44.950Z,65.65
2018-04-10T11:00:12.502Z,65.85
2018-04-10T11:02:40.078Z,66.12
2018-04-10T11:05:07.598Z,68.15
2018-04-10T11:07:35.166Z,65.42
2018-04-10T11:10:02.777Z,61.23
2018-04-10T11:12:30.345Z,63.51
2018-04-10T11:14:57.870Z,62.46
2018-04-10T11:17:25.424Z,64.01
2018-04-10T11:19:52.951Z,64.93
2018-04-10T11:22:20.501Z,62.94
2018-04-10T11:24:48.026Z,66.21
2018-04-10T11:27:16.432Z,64.84
2018-04-10T11:29:43.989Z,64.07
2018-04-10T11:32:11.566Z,65.34
2018-04-10T11:34:39.082Z,64.36
2018-04-10T11:37:06.641Z,64.59
2018-04-10T11:39:35.157Z,65.99
2018-04-10T11:42:02.718Z,65.87
2018-04-10T11:44:30.268Z,65.02
2018-04-10T11:46:57.813Z,65.49
2018-04-10T11:49:25.356Z,66.50
2018-04-10T11:51:53.777Z,66.62
2018-04-10T11:54:22.762Z,66.42
2018-04-10T11:56:50.515Z,68.05
2018-04-10T11:59:18.245Z,67.96
2018-04-10T12:01:46.871Z,66.70
2018-04-10T12:04:14.528Z,66.47
2018-04-10T12:06:42.095Z,67.57
2018-04-10T12:09:09.622Z,67.08
2018-04-10T12:11:37.241Z,66.36
2018-04-10T12:14:04.769Z,67.87
2018-04-10T12:16:32.356Z,69.70
2018-04-10T12:18:59.896Z,71.04
2018-04-10T12:21:27.442Z,70.97
2018-04-10T12:23:55.022Z,72.57
2018-04-10T12:26:22.566Z,71.83
2018-04-10T12:28:50.097Z,74.08
2018-04-10T12:31:17.645Z,75.08
2018-04-10T12:33:45.186Z,76.66
2018-04-10T12:36:12.754Z,76.63
2018-04-10T12:38:40.269Z,76.79
2018-04-10T12:41:08.099Z,78.71
2018-04-10T12:43:35.847Z,74.37
2018-04-10T12:46:03.412Z,72.52
2018-04-10T12:48:31.776Z,69.94
2018-04-10T12:50:59.730Z,68.92
2018-04-10T12:53:27.930Z,69.75
2018-04-10T12:55:55.498Z,69.30
2018-04-10T12:58:23.360Z,69.16
2018-04-10T13:00:50.886Z,66.98
2018-04-10T13:03:20.033Z,66.92
2018-04-10T13:05:48.098Z,67.59
2018-04-10T13:08:17.194Z,68.83
2018-04-10T13:10:45.675Z,66.11
2018-04-10T13:13:14.063Z,67.78
2018-04-10T13:15:42.101Z,66.08
2018-04-10T13:18:10.217Z,65.71
2018-04-10T13:20:38.138Z,66.00
2018-04-10T13:23:07.644Z,65.38
2018-04-10T13:25:35.735Z,66.83
2018-04-10T13:28:03.355Z,65.04
2018-04-10T13:30:30.869Z,64.97
2018-04-10T13:32:58.751Z,65.20
2018-04-10T13:35:26.381Z,67.60
2018-04-10T13:37:53.935Z,65.20
2018-04-10T13:40:21.906Z,65.62
2018-04-10T13:42:49.730Z,65.14
2018-04-10T13:45:17.861Z,65.22
2018-04-10T13:47:45.449Z,65.00
2018-04-10T13:50:15.455Z,65.47
2018-04-10T13:52:43.299Z,65.38
2018-04-10T13:55:10.911Z,67.67
2018-04-10T13:57:43.715Z,67.38
2018-04-10T14:00:15.744Z,65.15
2018-04-10T14:02:43.744Z,67.33
2018-04-10T14:05:13.221Z,67.03
2018-04-10T14:07:45.406Z,67.90
2018-04-10T14:10:13.861Z,66.42
2018-04-10T14:12:46.140Z,67.76
2018-04-10T14:15:19.591Z,67.75
2018-04-10T14:17:50.456Z,66.86
2018-04-10T14:20:18.940Z,69.82
2018-04-10T14:22:46.568Z,69.12
2018-04-10T14:27:48.650Z,68.27
2018-04-10T14:30:16.252Z,68.08
2018-04-10T14:32:43.832Z,69.21
2018-04-10T14:35:11.380Z,67.61
2018-04-10T14:37:39.302Z,67.32
2018-04-10T14:40:06.823Z,69.02
2018-04-10T14:42:34.374Z,69.19
2018-04-10T14:45:01.916Z,69.44
2018-04-10T14:47:29.528Z,69.85
2018-04-10T14:49:57.038Z,70.29
2018-04-10T14:52:24.625Z,70.19
2018-04-10T14:54:52.796Z,69.50
2018-04-10T14:57:20.322Z,70.80
2018-04-10T14:59:47.895Z,70.53
2018-04-10T15:02:15.432Z,71.48
2018-04-10T15:04:42.999Z,71.54
2018-04-10T15:07:10.509Z,71.85
2018-04-10T15:09:38.107Z,71.50
2018-04-10T15:12:05.633Z,71.04
2018-04-10T15:14:33.388Z,71.67
2018-04-10T15:17:00.941Z,71.19
2018-04-10T15:19:28.612Z,70.21
2018-04-10T15:21:56.169Z,72.94
2018-04-10T15:24:24.732Z,72.55
2018-04-10T15:26:52.253Z,72.39
2018-04-10T15:29:19.898Z,72.35
2018-04-10T15:31:48.185Z,72.58
2018-04-10T15:34:18.124Z,72.72
2018-04-10T15:36:46.508Z,72.26
2018-04-10T15:39:15.265Z,71.54
2018-04-10T15:41:44.710Z,71.10
2018-04-10T15:44:16.348Z,71.05
2018-04-10T15:46:45.217Z,71.24
2018-04-10T15:49:13.418Z,71.53
2018-04-10T15:51:41.325Z,70.67
2018-04-10T15:54:09.176Z,71.36
2018-04-10T15:56:37.015Z,71.08
2018-04-10T15:59:04.624Z,72.03
2018-04-10T16:01:34.886Z,73.08
2018-04-10T16:04:10.362Z,74.23
2018-04-10T16:06:38.402Z,74.80
2018-04-10T16:09:05.979Z,77.34
2018-04-10T16:11:33.565Z,78.76
2018-04-10T16:14:01.146Z,78.81
2018-04-10T16:16:28.676Z,79.46
2018-04-10T16:18:56.252Z,80.75
2018-04-10T16:21:23.766Z,81.38
2018-04-10T16:23:51.330Z,81.12
2018-04-10T16:26:18.858Z,81.73
2018-04-10T16:28:46.426Z,82.48
2018-04-10T16:31:13.954Z,82.40
2018-04-10T16:33:41.513Z,82.69
2018-04-10T16:36:09.032Z,83.63
2018-04-10T16:38:36.581Z,83.39
2018-04-10T16:41:04.097Z,83.87
2018-04-10T16:43:31.676Z,83.44
2018-04-10T16:45:59.204Z,82.15
2018-04-10T16:48:26.718Z,82.21
2018-04-10T16:50:54.270Z,82.90
2018-04-10T16:53:21.796Z,81.73
2018-04-10T16:55:49.357Z,82.07
2018-04-10T16:58:16.888Z,81.31
2018-04-10T17:00:44.420Z,79.50
2018-04-10T17:03:15.784Z,81.99
2018-04-10T17:05:43.939Z,81.41
2018-04-10T17:08:14.460Z,82.60
2018-04-10T17:10:46.788Z,84.61
2018-04-10T17:13:17.842Z,85.00
2018-04-10T17:15:50.447Z,86.24
2018-04-10T17:18:21.351Z,85.11
2018-04-10T17:20:53.984Z,84.93
2018-04-10T17:23:25.069Z,82.85
2018-04-10T17:25:56.377Z,81.43
2018-04-10T17:28:27.088Z,82.50
2018-04-10T17:30:59.359Z,83.44
2018-04-10T17:33:30.910Z,81.38
2018-04-10T17:36:01.490Z,83.00
2018-04-10T17:38:32.468Z,82.00
2018-04-10T17:41:04.673Z,83.70
2018-04-10T17:43:36.328Z,82.29
2018-04-10T17:46:07.304Z,82.88
2018-04-10T17:48:38.461Z,84.18
2018-04-10T17:51:06.111Z,83.64
2018-04-10T17:53:34.199Z,84.53
2018-04-10T17:56:12.279Z,82.86
2018-04-10T17:58:40.646Z,83.21
2018-04-10T18:01:09.045Z,82.91
2018-04-10T18:03:37.001Z,83.91
2018-04-10T18:06:04.570Z,84.00
2018-04-10T18:08:32.201Z,84.79
2018-04-10T18:11:00.226Z,84.07
2018-04-10T18:13:28.553Z,83.92
2018-04-10T18:15:56.202Z,84.45
2018-04-10T18:18:23.763Z,84.59
2018-04-10T18:20:52.123Z,86.25
2018-04-10T18:23:19.659Z,86.73
2018-04-10T18:25:47.281Z,87.17
2018-04-10T18:28:14.832Z,87.87
2018-04-10T18:30:42.437Z,86.73
2018-04-10T18:33:09.993Z,87.09
2018-04-10T18:35:37.561Z,86.42
2018-04-10T18:38:05.097Z,86.28
2018-04-10T18:40:32.645Z,85.66
2018-04-10T18:43:00.187Z,86.53
2018-04-10T18:45:28.002Z,86.36
2018-04-10T18:47:55.534Z,86.87
2018-04-10T18:50:23.083Z,86.33
2018-04-10T18:52:52.958Z,86.18
2018-04-10T18:55:24.542Z,86.79
2018-04-10T18:57:57.549Z,85.88
2018-04-10T19:00:27.544Z,85.35
2018-04-10T19:02:57.016Z,85.71
2018-04-10T19:05:30.209Z,85.47
2018-04-10T19:08:00.155Z,85.52
2018-04-10T19:10:29.939Z,85.70
2018-04-10T19:13:00.874Z,86.20
2018-04-10T19:15:29.609Z,86.07
2018-04-10T19:17:57.198Z,86.33
2018-04-10T19:20:24.854Z,85.56
2018-04-10T19:22:52.675Z,85.07
2018-04-10T19:25:20.316Z,84.74
2018-04-10T19:27:47.920Z,85.08
2018-04-10T19:30:15.523Z,84.59
2018-04-10T19:32:43.039Z,85.58
2018-04-10T19:35:10.632Z,85.72
2018-04-10T19:37:38.735Z,86.99
2018-04-10T19:40:06.269Z,86.88
2018-04-10T19:42:34.065Z,85.51
2018-04-10T19:45:05.642Z,85.86
2018-04-10T19:47:33.189Z,86.43
2018-04-10T19:50:00.707Z,86.48
2018-04-10T19:52:28.268Z,86.28
2018-04-10T19:54:55.788Z,86.63
2018-04-10T19:57:23.492Z,86.56
2018-04-10T19:59:51.016Z,86.75
2018-04-10T20:02:20.465Z,86.52
2018-04-10T20:04:47.981Z,86.31
2018-04-10T20:07:15.609Z,87.05
2018-04-10T20:09:43.160Z,87.39
2018-04-10T20:12:10.721Z,87.29
2018-04-10T20:14:38.270Z,87.13
2018-04-10T20:17:05.902Z,87.65
2018-04-10T20:19:33.413Z,88.20
2018-04-10T20:22:00.968Z,88.06
2018-04-10T20:24:28.530Z,88.09
2018-04-10T20:26:56.086Z,87.11
2018-04-10T20:29:23.634Z,86.66
2018-04-10T20:31:51.190Z,87.09
2018-04-10T20:34:18.699Z,87.53
2018-04-10T20:36:46.286Z,87.74
2018-04-10T20:39:13.822Z,87.99
2018-04-10T20:41:41.489Z,87.92
2018-04-10T20:44:09.011Z,87.09
2018-04-10T20:46:36.577Z,87.03
2018-04-10T20:49:04.108Z,86.46
2018-04-10T20:51:32.985Z,86.28
2018-04-10T20:54:00.549Z,86.64
2018-04-10T20:56:28.137Z,86.00
2018-04-10T20:58:55.669Z,86.06
2018-04-10T21:01:23.227Z,86.49
2018-04-10T21:03:50.753Z,86.29
2018-04-10T21:06:18.299Z,86.68
2018-04-10T21:08:45.826Z,86.86
2018-04-10T21:11:13.366Z,87.45
2018-04-10T21:13:40.890Z,87.03
2018-04-10T21:16:08.462Z,88.60
2018-04-10T21:18:35.994Z,88.21
2018-04-10T21:21:03.560Z,87.66
2018-04-10T21:23:31.122Z,87.03
2018-04-10T21:25:58.629Z,86.86
2018-04-10T21:28:29.617Z,86.56
2018-04-10T21:30:59.206Z,87.83
2018-04-10T21:33:30.658Z,87.71
2018-04-10T21:35:59.027Z,87.67
2018-04-10T21:38:30.076Z,87.29
2018-04-10T21:41:00.718Z,87.02
2018-04-10T21:43:31.568Z,86.50
2018-04-10T21:46:01.062Z,85.95
2018-04-10T21:48:31.608Z,86.53
2018-04-10T21:51:01.501Z,87.37
2018-04-10T21:53:29.274Z,87.83
2018-04-10T21:55:57.084Z,87.83
2018-04-10T21:58:27.119Z,88.22
2018-04-10T22:00:55.220Z,88.36
2018-04-10T22:03:25.103Z,88.89
2018-04-10T22:05:54.065Z,88.05
2018-04-10T22:08:24.046Z,88.58
2018-04-10T22:10:51.913Z,88.21
2018-04-10T22:13:23.900Z,87.89
2018-04-10T22:15:55.421Z,87.73
2018-04-10T22:18:24.928Z,87.23
2018-04-10T22:20:54.131Z,87.59
2018-04-10T22:23:23.425Z,87.50
2018-04-10T22:25:53.310Z,87.33
2018-04-10T22:28:22.135Z,87.24
2018-04-10T22:30:53.007Z,87.58
2018-04-10T22:33:22.045Z,86.56
2018-04-10T22:35:51.328Z,86.41
2018-04-10T22:38:21.989Z,86.99
2018-04-10T22:40:49.846Z,87.08
2018-04-10T22:43:19.178Z,86.67
2018-04-10T22:45:47.052Z,87.16
2018-04-10T22:48:14.862Z,88.13
2018-04-10T22:50:44.415Z,87.69
2018-04-10T22:53:11.984Z,86.80
2018-04-10T22:55:44.168Z,86.34
2018-04-10T22:58:12.283Z,86.59
2018-04-10T23:00:54.634Z,86.66
2018-04-10T23:03:22.367Z,87.37
2018-04-10T23:05:49.949Z,86.96
2018-04-10T23:08:17.668Z,86.85
2018-04-10T23:10:45.331Z,86.77
2018-04-10T23:13:12.917Z,87.27
2018-04-10T23:15:40.697Z,87.43
2018-04-10T23:18:08.280Z,87.64
2018-04-10T23:20:35.802Z,87.80
2018-04-10T23:23:06.208Z,87.30
2018-04-10T23:25:34.278Z,87.14
2018-04-10T23:28:02.374Z,87.42
2018-04-10T23:30:30.038Z,87.31
2018-04-10T23:32:57.803Z,88.62
2018-04-10T23:35:25.523Z,87.58
2018-04-10T23:37:54.010Z,87.52
2018-04-10T23:40:21.964Z,88.63
2018-04-10T23:42:49.750Z,88.28
2018-04-10T23:45:17.463Z,88.68
2018-04-10T23:47:45.108Z,88.33
2018-04-10T23:50:12.852Z,88.25
2018-04-10T23:52:41.395Z,89.04
2018-04-10T23:55:09.869Z,89.09
2018-04-10T23:57:38.214Z,89.49
